Wilson Gdynia — 8PSA — position and weather

sailwx.info

Track history (hours):
 
Tides and Currents Weather Stations Pressure Air Temp Water Temp Dewpoint Dewpoint Depression Visibility Wind Speed Wind Dir Waves Ship Positions

Wilson Gdynia

Last reported at 2014-Jul-22 23:12 UTC. Time now 2014-Jul-23 03:44 UTC.
Position N 49°50' E 000°02'.

Length 88 m; draft 5.8 m.

Type: Cargo ship. MMSI: 314192000.

Date/timePositionNaut miles runAvg speedWind from/ knotsBaromVisibWave heightAir tempDewpointWater temp
2014-Jul-22 23:12N 49°50' E 000°02'5 8.1
2014-Jul-22 22:33N 49°45' E 000°02'8 8.5
2014-Jul-22 21:33N 49°37' W 000°03'8 7.8
2014-Jul-22 20:33N 49°29' W 000°05'9 9.1
2014-Jul-22 19:33N 49°26' E 000°08'10 9.7
2014-Jul-22 18:33N 49°27' E 000°23'7 6.4
2014-Jul-22 17:30N 49°27' E 000°33'  
2014-Jul-16 11:23N 49°28' E 000°40'911.1
2014-Jul-16 10:33N 49°27' E 000°26'1515.1
2014-Jul-16 09:33N 49°27' E 000°03'10 9.6
2014-Jul-16 08:33N 49°34' W 000°07'2611.7
2014-Jul-16 06:20N 49°60' W 000°01'1010.3
2014-Jul-16 05:23N 50°10' W 000°02'8 9.1
2014-Jul-16 04:28N 50°18' W 000°02'9 9.1
2014-Jul-16 03:32N 50°27' W 000°02'9 9.0
2014-Jul-16 02:29N 50°30' E 000°11'9 8.6
2014-Jul-16 01:25N 50°33' E 000°25'7 7.5
2014-Jul-16 00:29N 50°36' E 000°35'7 6.8
2014-Jul-15 23:30N 50°39' E 000°44'7 7.0
2014-Jul-15 22:33N 50°43' E 000°53'12 9.1
2014-Jul-15 21:15N 50°50' E 001°08'910.6
2014-Jul-15 20:23N 50°56' E 001°19'910.9
2014-Jul-15 19:33N 51°02' E 001°29'9 8.8
2014-Jul-15 18:33N 51°09' E 001°38'8 8.0
2014-Jul-15 17:34N 51°15' E 001°47'7 6.8
2014-Jul-15 16:33N 51°20' E 001°53'6 6.2
2014-Jul-15 15:31N 51°26' E 001°59'6 6.4
2014-Jul-15 14:33N 51°31' E 002°05'8 7.6
2014-Jul-15 13:33N 51°37' E 002°13'9 8.8
2014-Jul-15 12:33N 51°44' E 002°22'1010.3
2014-Jul-15 11:33N 51°52' E 002°32'63 8.9
2014-Jul-15 04:27N 52°31' E 003°53'7 7.4
2014-Jul-15 03:32N 52°31' E 004°04'7 7.0
2014-Jul-15 02:33N 52°31' E 004°15'8 8.1
2014-Jul-15 01:33N 52°29' E 004°28'5 5.2
2014-Jul-15 00:33N 52°28' E 004°37'6 6.4
2014-Jul-14 23:34N 52°26' E 004°46'2 1.7
2014-Jul-14 22:33N 52°25' E 004°49'0 0.0
2014-Jul-14 21:33N 52°25' E 004°49'0 0.0
2014-Jul-14 20:30N 52°25' E 004°49'0 0.0
2014-Jul-14 19:33N 52°25' E 004°49'0 0.0
2014-Jul-14 18:33N 52°25' E 004°49'0 0.0
2014-Jul-14 16:33N 52°25' E 004°49'0 0.0
2014-Jul-14 15:33N 52°25' E 004°49'0 0.1
2014-Jul-14 14:33N 52°25' E 004°49'0 0.1
2014-Jul-14 13:33N 52°25' E 004°49'6 6.5
2014-Jul-14 12:33N 52°28' E 004°39'6 6.0
2014-Jul-14 11:33N 52°28' E 004°29'8 7.6
2014-Jul-14 10:33N 52°29' E 004°17'6 6.2
2014-Jul-14 09:33N 52°31' E 004°08'8 7.1
2014-Jul-14 08:27N 52°38' E 004°03'83 8.2
2014-Jul-13 22:14N 53°57' E 004°47'8 8.8
2014-Jul-13 21:21N 54°05' E 004°50'8 8.6
2014-Jul-13 20:26N 54°13' E 004°53'8 8.7
2014-Jul-13 19:31N 54°21' E 004°56'18 8.9
2014-Jul-13 17:27N 54°39' E 005°03'12 9.0
2014-Jul-13 16:09N 54°50' E 005°06'  
Track history (hours):
 
Tides and Currents Weather Stations Pressure Air Temp Water Temp Dewpoint Dewpoint Depression Visibility Wind Speed Wind Dir Waves Ship Positions

Wilson Gdynia

Last reported at 2014-Jul-22 23:12 UTC. Time now 2014-Jul-23 03:44 UTC.
Position N 49°50' E 000°02'.

Length 88 m; draft 5.8 m.

Type: Cargo ship. MMSI: 314192000.

Date/timePositionNaut miles runAvg speedWind from/ knotsBaromVisibWave heightAir tempDewpointWater temp
2014-Jul-22 23:12N 49°50' E 000°02'5 8.1
2014-Jul-22 22:33N 49°45' E 000°02'8 8.5
2014-Jul-22 21:33N 49°37' W 000°03'8 7.8
2014-Jul-22 20:33N 49°29' W 000°05'9 9.1
2014-Jul-22 19:33N 49°26' E 000°08'10 9.7
2014-Jul-22 18:33N 49°27' E 000°23'7 6.4
2014-Jul-22 17:30N 49°27' E 000°33'  
2014-Jul-16 11:23N 49°28' E 000°40'911.1
2014-Jul-16 10:33N 49°27' E 000°26'1515.1
2014-Jul-16 09:33N 49°27' E 000°03'10 9.6
2014-Jul-16 08:33N 49°34' W 000°07'2611.7
2014-Jul-16 06:20N 49°60' W 000°01'1010.3
2014-Jul-16 05:23N 50°10' W 000°02'8 9.1
2014-Jul-16 04:28N 50°18' W 000°02'9 9.1
2014-Jul-16 03:32N 50°27' W 000°02'9 9.0
2014-Jul-16 02:29N 50°30' E 000°11'9 8.6
2014-Jul-16 01:25N 50°33' E 000°25'7 7.5
2014-Jul-16 00:29N 50°36' E 000°35'7 6.8
2014-Jul-15 23:30N 50°39' E 000°44'7 7.0
2014-Jul-15 22:33N 50°43' E 000°53'12 9.1
2014-Jul-15 21:15N 50°50' E 001°08'910.6
2014-Jul-15 20:23N 50°56' E 001°19'910.9
2014-Jul-15 19:33N 51°02' E 001°29'9 8.8
2014-Jul-15 18:33N 51°09' E 001°38'8 8.0
2014-Jul-15 17:34N 51°15' E 001°47'7 6.8
2014-Jul-15 16:33N 51°20' E 001°53'6 6.2
2014-Jul-15 15:31N 51°26' E 001°59'6 6.4
2014-Jul-15 14:33N 51°31' E 002°05'8 7.6
2014-Jul-15 13:33N 51°37' E 002°13'9 8.8
2014-Jul-15 12:33N 51°44' E 002°22'1010.3
2014-Jul-15 11:33N 51°52' E 002°32'63 8.9
2014-Jul-15 04:27N 52°31' E 003°53'7 7.4
2014-Jul-15 03:32N 52°31' E 004°04'7 7.0
2014-Jul-15 02:33N 52°31' E 004°15'8 8.1
2014-Jul-15 01:33N 52°29' E 004°28'5 5.2
2014-Jul-15 00:33N 52°28' E 004°37'6 6.4
2014-Jul-14 23:34N 52°26' E 004°46'2 1.7
2014-Jul-14 22:33N 52°25' E 004°49'0 0.0
2014-Jul-14 21:33N 52°25' E 004°49'0 0.0
2014-Jul-14 20:30N 52°25' E 004°49'0 0.0
2014-Jul-14 19:33N 52°25' E 004°49'0 0.0
2014-Jul-14 18:33N 52°25' E 004°49'0 0.0
2014-Jul-14 16:33N 52°25' E 004°49'0 0.0
2014-Jul-14 15:33N 52°25' E 004°49'0 0.1
2014-Jul-14 14:33N 52°25' E 004°49'0 0.1
2014-Jul-14 13:33N 52°25' E 004°49'6 6.5
2014-Jul-14 12:33N 52°28' E 004°39'6 6.0
2014-Jul-14 11:33N 52°28' E 004°29'8 7.6
2014-Jul-14 10:33N 52°29' E 004°17'6 6.2
2014-Jul-14 09:33N 52°31' E 004°08'8 7.1
2014-Jul-14 08:27N 52°38' E 004°03'83 8.2
2014-Jul-13 22:14N 53°57' E 004°47'8 8.8
2014-Jul-13 21:21N 54°05' E 004°50'8 8.6
2014-Jul-13 20:26N 54°13' E 004°53'8 8.7
2014-Jul-13 19:31N 54°21' E 004°56'18 8.9
2014-Jul-13 17:27N 54°39' E 005°03'12 9.0
2014-Jul-13 16:09N 54°50' E 005°06'  

Dump ship's entire track history